Airfield :
LOGIN :

Register | Disclaimer

   EN    FR    IT 

 










Legend :    VFR   Marginal VFR   IFR   Intensive IFR   Very Intensive IFR
Visi :
Ceiling :
>= 8 km
>= 3000ft
5 to 8 km
1000 to 3000 ft
1500m to 5 km
500 to 1000 ft
800 to 1500m
200 to 500 ft
< 800m
< 200 ft
Symbols :   Thunderstorms  Fog  Heavy snow  Heavy precipitations  Wind > 20 kt
SIGMETs :     Misc.  Thunderstorms  Icing  Turbulence  Mountain Waves  Volcanic Ashes






- Airport Elevation : 622 ft
- IATA code : BRS


EGGD - Bristol Int.

CURRENT METAR :
  • 300350Z AUTO VRB01KT 200V270 0100 R27/0400 FG OVC/// 04/04 Q1027

EXPIRED METARs :
  • 300250Z AUTO 00000KT 0050 FG OVC/// 04/04 Q1027
  • 300150Z AUTO 00000KT 0050 FG OVC/// 04/04 Q1027

TAF TAF EGGD
Valid from the 30 at 00:00 until the 01 at 00:00 UTC


292258Z 3000/3024 05003KT 0100 FG VV///
BECMG 3004/3007 27012KT
PROB30
TEMPO 3006/3010 3000 BR BKN003
BECMG 3010/3013 6000 NSW BKN008
BECMG 3013/3015 9999 SCT015
TEMPO 3013/3018 27015G25KT
TEMPO 3015/3024 8000 -RA BKN008
PROB30
TEMPO 3021/3024 2000 BR BKN002
ATIS : +44 1275 473 666



MET'MAP, your aeronautical weather chart ! - Copyright ORBIFLY December 2007 - Disclaimer

ORBIFLY MET'MAP TEAM :

Programming & Development : Alexandra Zaïnal
Concept & original design : Baudouin d'Aumeries
Assistance for programming : Marc-Olivier Méhu
Technical & hardware support : Manuel Goepfert

Contact : metmap@orbifly.com




SOURCES & CREDITS :

   NOAA